sensor_id;sensor_type;location;lat;lon;timestamp;temperature;humidity
5055;DHT22;13829;48.990;8.346;2024-03-23T00:55:03;12.00;99.90
5055;DHT22;13829;48.990;8.346;2024-03-23T00:57:29;12.10;99.90
5055;DHT22;13829;48.990;8.346;2024-03-23T00:59:56;12.10;99.90
5055;DHT22;13829;48.990;8.346;2024-03-23T01:02:22;12.10;99.90
5055;DHT22;13829;48.990;8.346;2024-03-23T01:04:49;12.10;99.90
5055;DHT22;13829;48.990;8.346;2024-03-23T01:07:15;12.20;99.90
5055;DHT22;13829;48.990;8.346;2024-03-23T01:09:43;12.20;99.90
5055;DHT22;13829;48.990;8.346;2024-03-23T01:12:09;12.00;99.90
5055;DHT22;13829;48.990;8.346;2024-03-23T01:14:36;12.00;99.90
5055;DHT22;13829;48.990;8.346;2024-03-23T01:17:02;11.90;99.90
5055;DHT22;13829;48.990;8.346;2024-03-23T01:19:30;11.80;99.90
5055;DHT22;13829;48.990;8.346;2024-03-23T01:21:56;11.80;99.90
5055;DHT22;13829;48.990;8.346;2024-03-23T01:24:22;11.80;99.90
5055;DHT22;13829;48.990;8.346;2024-03-23T01:26:50;11.70;99.90
5055;DHT22;13829;48.990;8.346;2024-03-23T01:29:17;11.70;99.90
5055;DHT22;13829;48.990;8.346;2024-03-23T01:31:43;11.90;99.90
5055;DHT22;13829;48.990;8.346;2024-03-23T01:34:11;12.00;99.90
5055;DHT22;13829;48.990;8.346;2024-03-23T01:36:37;12.00;99.90
5055;DHT22;13829;48.990;8.346;2024-03-23T01:39:04;12.10;99.90
5055;DHT22;13829;48.990;8.346;2024-03-23T01:41:30;12.10;99.90
5055;DHT22;13829;48.990;8.346;2024-03-23T01:44:00;12.20;99.90
5055;DHT22;13829;48.990;8.346;2024-03-23T01:46:31;12.30;99.90
5055;DHT22;13829;48.990;8.346;2024-03-23T01:48:59;12.40;99.90
5055;DHT22;13829;48.990;8.346;2024-03-23T01:51:25;12.40;99.90
5055;DHT22;13829;48.990;8.346;2024-03-23T01:53:54;12.40;99.90
5055;DHT22;13829;48.990;8.346;2024-03-23T01:56:21;12.50;99.90
5055;DHT22;13829;48.990;8.346;2024-03-23T01:58:49;12.50;99.90
5055;DHT22;13829;48.990;8.346;2024-03-23T02:01:16;12.50;99.90
5055;DHT22;13829;48.990;8.346;2024-03-23T02:03:44;12.50;99.90
5055;DHT22;13829;48.990;8.346;2024-03-23T02:06:10;12.50;99.90
5055;DHT22;13829;48.990;8.346;2024-03-23T02:08:37;12.60;99.90
5055;DHT22;13829;48.990;8.346;2024-03-23T02:11:04;12.70;99.90
5055;DHT22;13829;48.990;8.346;2024-03-23T02:13:31;12.80;99.90
5055;DHT22;13829;48.990;8.346;2024-03-23T02:15:57;12.90;99.90
5055;DHT22;13829;48.990;8.346;2024-03-23T02:18:26;13.00;99.90
5055;DHT22;13829;48.990;8.346;2024-03-23T02:20:52;13.10;99.90
5055;DHT22;13829;48.990;8.346;2024-03-23T02:23:20;13.20;99.90
5055;DHT22;13829;48.990;8.346;2024-03-23T02:25:46;13.30;99.90
5055;DHT22;13829;48.990;8.346;2024-03-23T02:28:13;13.30;99.90
5055;DHT22;13829;48.990;8.346;2024-03-23T02:30:39;13.30;99.90
5055;DHT22;13829;48.990;8.346;2024-03-23T02:33:06;13.20;99.90
5055;DHT22;13829;48.990;8.346;2024-03-23T02:35:32;13.20;99.90
5055;DHT22;13829;48.990;8.346;2024-03-23T02:37:59;13.20;99.90
5055;DHT22;13829;48.990;8.346;2024-03-23T02:40:27;13.20;99.90
5055;DHT22;13829;48.990;8.346;2024-03-23T02:42:55;13.20;99.90
5055;DHT22;13829;48.990;8.346;2024-03-23T02:45:20;13.10;99.90
5055;DHT22;13829;48.990;8.346;2024-03-23T02:47:47;13.10;99.90
5055;DHT22;13829;48.990;8.346;2024-03-23T02:50:17;13.20;99.90
5055;DHT22;13829;48.990;8.346;2024-03-23T02:52:44;13.10;99.90
5055;DHT22;13829;48.990;8.346;2024-03-23T02:55:10;13.20;99.90
5055;DHT22;13829;48.990;8.346;2024-03-23T02:57:39;13.10;99.90
5055;DHT22;13829;48.990;8.346;2024-03-23T03:00:06;13.10;99.90
5055;DHT22;13829;48.990;8.346;2024-03-23T03:02:34;13.00;99.90
5055;DHT22;13829;48.990;8.346;2024-03-23T03:05:00;12.90;99.90
5055;DHT22;13829;48.990;8.346;2024-03-23T03:07:26;12.90;99.90
5055;DHT22;13829;48.990;8.346;2024-03-23T03:09:52;12.80;99.90
5055;DHT22;13829;48.990;8.346;2024-03-23T03:12:19;12.80;99.90
5055;DHT22;13829;48.990;8.346;2024-03-23T03:14:47;12.80;99.90
5055;DHT22;13829;48.990;8.346;2024-03-23T03:17:14;12.80;99.90
5055;DHT22;13829;48.990;8.346;2024-03-23T03:19:40;12.90;99.90
5055;DHT22;13829;48.990;8.346;2024-03-23T03:22:07;13.00;99.90
5055;DHT22;13829;48.990;8.346;2024-03-23T03:24:33;13.10;99.90
5055;DHT22;13829;48.990;8.346;2024-03-23T03:27:00;13.30;99.90
5055;DHT22;13829;48.990;8.346;2024-03-23T03:29:26;13.30;99.90
5055;DHT22;13829;48.990;8.346;2024-03-23T03:32:01;13.40;99.90
5055;DHT22;13829;48.990;8.346;2024-03-23T03:34:27;13.40;99.90
5055;DHT22;13829;48.990;8.346;2024-03-23T03:36:55;13.50;99.90
5055;DHT22;13829;48.990;8.346;2024-03-23T03:39:21;13.40;99.90
5055;DHT22;13829;48.990;8.346;2024-03-23T03:41:49;13.50;99.90
5055;DHT22;13829;48.990;8.346;2024-03-23T03:44:15;13.50;99.90
5055;DHT22;13829;48.990;8.346;2024-03-23T03:46:42;13.50;99.90
5055;DHT22;13829;48.990;8.346;2024-03-23T03:49:09;13.50;99.90
5055;DHT22;13829;48.990;8.346;2024-03-23T03:51:36;13.40;99.90
5055;DHT22;13829;48.990;8.346;2024-03-23T03:54:02;13.40;99.90
5055;DHT22;13829;48.990;8.346;2024-03-23T03:56:29;13.40;99.90
5055;DHT22;13829;48.990;8.346;2024-03-23T03:58:55;13.40;99.90
5055;DHT22;13829;48.990;8.346;2024-03-23T04:01:22;13.20;99.90
5055;DHT22;13829;48.990;8.346;2024-03-23T04:03:48;13.20;99.90
5055;DHT22;13829;48.990;8.346;2024-03-23T04:06:20;13.20;99.90
5055;DHT22;13829;48.990;8.346;2024-03-23T04:08:46;13.20;99.90
5055;DHT22;13829;48.990;8.346;2024-03-23T04:11:13;13.10;99.90
5055;DHT22;13829;48.990;8.346;2024-03-23T04:13:39;13.10;99.90
5055;DHT22;13829;48.990;8.346;2024-03-23T04:16:07;13.20;99.90
5055;DHT22;13829;48.990;8.346;2024-03-23T04:18:33;13.10;99.90
5055;DHT22;13829;48.990;8.346;2024-03-23T04:21:00;13.20;99.90
5055;DHT22;13829;48.990;8.346;2024-03-23T04:23:28;13.10;99.90
5055;DHT22;13829;48.990;8.346;2024-03-23T04:25:54;13.10;99.90
5055;DHT22;13829;48.990;8.346;2024-03-23T04:28:21;13.00;99.90
5055;DHT22;13829;48.990;8.346;2024-03-23T04:30:47;13.00;99.90
5055;DHT22;13829;48.990;8.346;2024-03-23T04:33:14;13.00;99.90
5055;DHT22;13829;48.990;8.346;2024-03-23T04:35:40;12.90;99.90
5055;DHT22;13829;48.990;8.346;2024-03-23T04:38:07;12.80;99.90
5055;DHT22;13829;48.990;8.346;2024-03-23T04:40:35;12.90;99.90
5055;DHT22;13829;48.990;8.346;2024-03-23T04:43:02;12.80;99.90
5055;DHT22;13829;48.990;8.346;2024-03-23T04:45:30;12.70;99.90
5055;DHT22;13829;48.990;8.346;2024-03-23T04:47:57;12.70;99.90
5055;DHT22;13829;48.990;8.346;2024-03-23T04:50:23;12.60;99.90
5055;DHT22;13829;48.990;8.346;2024-03-23T04:52:50;12.60;99.90
5055;DHT22;13829;48.990;8.346;2024-03-23T04:55:17;12.60;99.90
5055;DHT22;13829;48.990;8.346;2024-03-23T04:57:46;12.50;99.90
5055;DHT22;13829;48.990;8.346;2024-03-23T05:00:13;12.50;99.90
5055;DHT22;13829;48.990;8.346;2024-03-23T05:02:44;12.50;99.90
5055;DHT22;13829;48.990;8.346;2024-03-23T05:05:12;12.40;99.90
5055;DHT22;13829;48.990;8.346;2024-03-23T05:07:38;12.40;99.90
5055;DHT22;13829;48.990;8.346;2024-03-23T05:10:05;12.40;99.90
5055;DHT22;13829;48.990;8.346;2024-03-23T05:12:35;12.40;99.90
5055;DHT22;13829;48.990;8.346;2024-03-23T05:15:04;12.30;99.90
5055;DHT22;13829;48.990;8.346;2024-03-23T05:17:31;12.20;99.90
5055;DHT22;13829;48.990;8.346;2024-03-23T05:19:58;12.20;99.90
5055;DHT22;13829;48.990;8.346;2024-03-23T05:22:24;12.20;99.90
5055;DHT22;13829;48.990;8.346;2024-03-23T05:24:52;12.20;99.90
5055;DHT22;13829;48.990;8.346;2024-03-23T05:27:18;12.10;99.90
5055;DHT22;13829;48.990;8.346;2024-03-23T05:29:45;12.00;99.90
5055;DHT22;13829;48.990;8.346;2024-03-23T05:32:14;12.00;99.90
5055;DHT22;13829;48.990;8.346;2024-03-23T05:34:41;12.00;99.90
5055;DHT22;13829;48.990;8.346;2024-03-23T05:37:07;12.00;99.90
5055;DHT22;13829;48.990;8.346;2024-03-23T05:39:33;12.10;99.90
5055;DHT22;13829;48.990;8.346;2024-03-23T05:41:59;12.00;99.90
5055;DHT22;13829;48.990;8.346;2024-03-23T05:44:26;11.90;99.90
5055;DHT22;13829;48.990;8.346;2024-03-23T05:46:52;11.90;99.90
5055;DHT22;13829;48.990;8.346;2024-03-23T05:49:20;11.80;99.90
5055;DHT22;13829;48.990;8.346;2024-03-23T05:51:46;11.70;99.90
5055;DHT22;13829;48.990;8.346;2024-03-23T05:54:13;11.70;99.90
5055;DHT22;13829;48.990;8.346;2024-03-23T05:56:40;11.60;99.90
5055;DHT22;13829;48.990;8.346;2024-03-23T05:59:07;11.60;99.90
5055;DHT22;13829;48.990;8.346;2024-03-23T06:01:33;11.60;99.90
5055;DHT22;13829;48.990;8.346;2024-03-23T06:04:00;11.50;99.90
5055;DHT22;13829;48.990;8.346;2024-03-23T06:06:28;11.50;99.90
5055;DHT22;13829;48.990;8.346;2024-03-23T06:08:56;11.40;99.90
5055;DHT22;13829;48.990;8.346;2024-03-23T06:11:22;11.30;99.90
5055;DHT22;13829;48.990;8.346;2024-03-23T06:13:49;11.20;99.90
5055;DHT22;13829;48.990;8.346;2024-03-23T06:16:15;11.30;99.90
5055;DHT22;13829;48.990;8.346;2024-03-23T06:18:45;11.30;99.90
5055;DHT22;13829;48.990;8.346;2024-03-23T06:21:13;11.30;99.90
5055;DHT22;13829;48.990;8.346;2024-03-23T06:23:42;11.30;99.90
5055;DHT22;13829;48.990;8.346;2024-03-23T06:26:08;11.30;99.90
5055;DHT22;13829;48.990;8.346;2024-03-23T06:28:35;11.20;99.90
5055;DHT22;13829;48.990;8.346;2024-03-23T06:31:02;11.20;99.90
5055;DHT22;13829;48.990;8.346;2024-03-23T06:33:28;11.20;99.90
5055;DHT22;13829;48.990;8.346;2024-03-23T06:35:55;11.30;99.90
5055;DHT22;13829;48.990;8.346;2024-03-23T06:38:21;11.40;99.90
5055;DHT22;13829;48.990;8.346;2024-03-23T06:40:49;11.50;99.90
5055;DHT22;13829;48.990;8.346;2024-03-23T06:43:18;11.50;99.90
5055;DHT22;13829;48.990;8.346;2024-03-23T06:45:52;11.50;99.90
5055;DHT22;13829;48.990;8.346;2024-03-23T06:48:19;11.40;99.90
5055;DHT22;13829;48.990;8.346;2024-03-23T06:50:46;11.30;99.90
5055;DHT22;13829;48.990;8.346;2024-03-23T06:53:12;11.30;99.90
5055;DHT22;13829;48.990;8.346;2024-03-23T06:55:39;11.30;99.90
5055;DHT22;13829;48.990;8.346;2024-03-23T06:58:07;11.20;99.90
5055;DHT22;13829;48.990;8.346;2024-03-23T07:00:35;11.30;99.90
5055;DHT22;13829;48.990;8.346;2024-03-23T07:03:01;11.20;99.90
5055;DHT22;13829;48.990;8.346;2024-03-23T07:05:29;11.10;99.90
5055;DHT22;13829;48.990;8.346;2024-03-23T07:07:55;11.10;99.90
5055;DHT22;13829;48.990;8.346;2024-03-23T07:10:22;11.00;99.90
5055;DHT22;13829;48.990;8.346;2024-03-23T07:12:48;10.90;99.90
5055;DHT22;13829;48.990;8.346;2024-03-23T07:15:16;10.80;99.90
5055;DHT22;13829;48.990;8.346;2024-03-23T07:17:42;10.70;99.90
5055;DHT22;13829;48.990;8.346;2024-03-23T07:20:10;10.70;99.90
5055;DHT22;13829;48.990;8.346;2024-03-23T07:22:37;10.70;99.90
5055;DHT22;13829;48.990;8.346;2024-03-23T07:25:05;10.70;99.90
5055;DHT22;13829;48.990;8.346;2024-03-23T07:27:32;10.60;99.90
5055;DHT22;13829;48.990;8.346;2024-03-23T07:29:59;10.60;99.90
5055;DHT22;13829;48.990;8.346;2024-03-23T07:32:27;10.70;99.90
5055;DHT22;13829;48.990;8.346;2024-03-23T07:34:54;10.70;99.90
5055;DHT22;13829;48.990;8.346;2024-03-23T07:37:20;10.80;99.90
5055;DHT22;13829;48.990;8.346;2024-03-23T07:39:47;10.90;99.90
5055;DHT22;13829;48.990;8.346;2024-03-23T07:42:14;10.90;99.90
5055;DHT22;13829;48.990;8.346;2024-03-23T07:44:41;11.00;99.90
5055;DHT22;13829;48.990;8.346;2024-03-23T07:47:07;11.10;99.90
5055;DHT22;13829;48.990;8.346;2024-03-23T07:49:35;11.60;99.90
5055;DHT22;13829;48.990;8.346;2024-03-23T07:52:02;11.80;99.90
5055;DHT22;13829;48.990;8.346;2024-03-23T07:54:29;11.70;99.90
5055;DHT22;13829;48.990;8.346;2024-03-23T07:56:55;11.60;99.90
5055;DHT22;13829;48.990;8.346;2024-03-23T07:59:22;11.50;99.90
5055;DHT22;13829;48.990;8.346;2024-03-23T08:01:48;11.50;99.90
5055;DHT22;13829;48.990;8.346;2024-03-23T08:04:15;11.60;99.90
5055;DHT22;13829;48.990;8.346;2024-03-23T08:06:42;11.60;99.90
5055;DHT22;13829;48.990;8.346;2024-03-23T08:09:09;11.80;99.90
5055;DHT22;13829;48.990;8.346;2024-03-23T08:11:35;11.70;99.90
5055;DHT22;13829;48.990;8.346;2024-03-23T08:14:04;11.50;99.90
5055;DHT22;13829;48.990;8.346;2024-03-23T08:16:31;11.20;99.90
5055;DHT22;13829;48.990;8.346;2024-03-23T08:18:59;11.30;99.90
5055;DHT22;13829;48.990;8.346;2024-03-23T08:21:25;12.30;99.90
5055;DHT22;13829;48.990;8.346;2024-03-23T08:23:54;13.60;99.90
5055;DHT22;13829;48.990;8.346;2024-03-23T08:26:20;14.20;96.50
5055;DHT22;13829;48.990;8.346;2024-03-23T08:28:46;14.30;96.10
5055;DHT22;13829;48.990;8.346;2024-03-23T08:31:14;14.60;95.70
5055;DHT22;13829;48.990;8.346;2024-03-23T08:33:41;14.90;93.40
5055;DHT22;13829;48.990;8.346;2024-03-23T08:36:09;15.00;93.80
5055;DHT22;13829;48.990;8.346;2024-03-23T08:38:38;14.50;93.50
5055;DHT22;13829;48.990;8.346;2024-03-23T08:41:07;14.10;92.40
5055;DHT22;13829;48.990;8.346;2024-03-23T08:43:36;13.70;93.20
5055;DHT22;13829;48.990;8.346;2024-03-23T08:46:06;13.50;93.30
5055;DHT22;13829;48.990;8.346;2024-03-23T08:48:35;13.40;93.50
5055;DHT22;13829;48.990;8.346;2024-03-23T08:51:02;13.80;95.90
5055;DHT22;13829;48.990;8.346;2024-03-23T08:53:30;14.10;93.40
5055;DHT22;13829;48.990;8.346;2024-03-23T08:55:57;14.30;92.10
5055;DHT22;13829;48.990;8.346;2024-03-23T08:58:28;14.40;91.50
5055;DHT22;13829;48.990;8.346;2024-03-23T09:00:57;14.50;91.20
5055;DHT22;13829;48.990;8.346;2024-03-23T09:03:29;14.20;89.30
5055;DHT22;13829;48.990;8.346;2024-03-23T09:05:55;13.90;88.40
5055;DHT22;13829;48.990;8.346;2024-03-23T09:08:23;13.80;88.90
5055;DHT22;13829;48.990;8.346;2024-03-23T09:10:50;13.70;86.30
5055;DHT22;13829;48.990;8.346;2024-03-23T09:13:18;13.50;87.80
5055;DHT22;13829;48.990;8.346;2024-03-23T09:15:49;13.30;89.60
5055;DHT22;13829;48.990;8.346;2024-03-23T09:18:21;13.00;89.40
5055;DHT22;13829;48.990;8.346;2024-03-23T09:20:47;12.80;88.00
5055;DHT22;13829;48.990;8.346;2024-03-23T09:23:14;12.40;89.40
5055;DHT22;13829;48.990;8.346;2024-03-23T09:25:40;12.10;90.30
5055;DHT22;13829;48.990;8.346;2024-03-23T09:28:07;11.80;89.80
5055;DHT22;13829;48.990;8.346;2024-03-23T09:30:34;11.80;91.00
5055;DHT22;13829;48.990;8.346;2024-03-23T09:33:03;11.70;90.40
5055;DHT22;13829;48.990;8.346;2024-03-23T09:35:29;11.70;90.70
5055;DHT22;13829;48.990;8.346;2024-03-23T09:37:56;11.60;90.50
5055;DHT22;13829;48.990;8.346;2024-03-23T09:40:22;11.50;91.20
5055;DHT22;13829;48.990;8.346;2024-03-23T09:42:50;11.40;90.90
5055;DHT22;13829;48.990;8.346;2024-03-23T09:45:20;11.40;91.20
5055;DHT22;13829;48.990;8.346;2024-03-23T09:47:48;11.50;91.90
5055;DHT22;13829;48.990;8.346;2024-03-23T09:50:17;11.40;92.40
5055;DHT22;13829;48.990;8.346;2024-03-23T09:52:46;11.20;95.10
5055;DHT22;13829;48.990;8.346;2024-03-23T09:55:12;10.70;99.90
5055;DHT22;13829;48.990;8.346;2024-03-23T09:57:39;10.20;99.90
5055;DHT22;13829;48.990;8.346;2024-03-23T10:00:06;10.10;99.90
5055;DHT22;13829;48.990;8.346;2024-03-23T10:02:34;10.10;99.90
5055;DHT22;13829;48.990;8.346;2024-03-23T10:05:01;10.00;99.90
5055;DHT22;13829;48.990;8.346;2024-03-23T10:07:29;10.10;99.90
5055;DHT22;13829;48.990;8.346;2024-03-23T10:09:55;10.20;99.90
5055;DHT22;13829;48.990;8.346;2024-03-23T10:12:24;10.30;99.90
5055;DHT22;13829;48.990;8.346;2024-03-23T10:14:50;10.40;99.90
5055;DHT22;13829;48.990;8.346;2024-03-23T10:17:18;10.30;99.90
5055;DHT22;13829;48.990;8.346;2024-03-23T10:19:45;10.40;99.90
5055;DHT22;13829;48.990;8.346;2024-03-23T10:22:17;10.60;99.90
5055;DHT22;13829;48.990;8.346;2024-03-23T10:24:45;10.70;99.90
5055;DHT22;13829;48.990;8.346;2024-03-23T10:27:15;10.80;99.90
5055;DHT22;13829;48.990;8.346;2024-03-23T10:29:42;11.00;99.90
5055;DHT22;13829;48.990;8.346;2024-03-23T10:32:10;11.10;99.90
5055;DHT22;13829;48.990;8.346;2024-03-23T10:34:37;11.10;99.90
5055;DHT22;13829;48.990;8.346;2024-03-23T10:37:05;11.10;99.90
5055;DHT22;13829;48.990;8.346;2024-03-23T10:39:33;11.10;99.90
5055;DHT22;13829;48.990;8.346;2024-03-23T10:42:06;11.40;99.90
5055;DHT22;13829;48.990;8.346;2024-03-23T10:44:34;11.40;99.90
5055;DHT22;13829;48.990;8.346;2024-03-23T10:47:01;11.40;99.90
5055;DHT22;13829;48.990;8.346;2024-03-23T10:49:30;11.50;99.90
5055;DHT22;13829;48.990;8.346;2024-03-23T10:51:58;11.50;99.90
5055;DHT22;13829;48.990;8.346;2024-03-23T10:54:25;11.60;99.90
5055;DHT22;13829;48.990;8.346;2024-03-23T10:57:03;11.60;99.90
5055;DHT22;13829;48.990;8.346;2024-03-23T10:59:35;11.50;99.90
5055;DHT22;13829;48.990;8.346;2024-03-23T11:02:04;11.60;99.90
5055;DHT22;13829;48.990;8.346;2024-03-23T11:04:34;11.70;99.90
5055;DHT22;13829;48.990;8.346;2024-03-23T11:07:30;11.80;99.90
5055;DHT22;13829;48.990;8.346;2024-03-23T11:09:57;11.80;99.90
5055;DHT22;13829;48.990;8.346;2024-03-23T11:12:29;11.70;99.90
5055;DHT22;13829;48.990;8.346;2024-03-23T11:15:00;11.70;99.90
5055;DHT22;13829;48.990;8.346;2024-03-23T11:17:29;11.70;99.90
5055;DHT22;13829;48.990;8.346;2024-03-23T11:19:56;11.70;99.90
5055;DHT22;13829;48.990;8.346;2024-03-23T11:22:43;11.70;99.90
5055;DHT22;13829;48.990;8.346;2024-03-23T11:25:16;11.60;99.90
5055;DHT22;13829;48.990;8.346;2024-03-23T11:27:48;11.80;99.90
5055;DHT22;13829;48.990;8.346;2024-03-23T11:30:16;12.00;99.90
5055;DHT22;13829;48.990;8.346;2024-03-23T11:32:46;12.10;99.90
5055;DHT22;13829;48.990;8.346;2024-03-23T11:35:25;12.40;99.90
5055;DHT22;13829;48.990;8.346;2024-03-23T11:38:06;12.50;99.90
5055;DHT22;13829;48.990;8.346;2024-03-23T11:40:35;12.50;99.90
5055;DHT22;13829;48.990;8.346;2024-03-23T11:43:05;12.70;99.90
5055;DHT22;13829;48.990;8.346;2024-03-23T11:45:36;12.80;99.90
5055;DHT22;13829;48.990;8.346;2024-03-23T11:48:06;12.70;99.90
5055;DHT22;13829;48.990;8.346;2024-03-23T11:50:34;12.50;99.90
5055;DHT22;13829;48.990;8.346;2024-03-23T11:53:18;12.20;99.90
5055;DHT22;13829;48.990;8.346;2024-03-23T11:55:47;12.20;99.90
5055;DHT22;13829;48.990;8.346;2024-03-23T11:58:17;12.10;99.90
5055;DHT22;13829;48.990;8.346;2024-03-23T12:00:50;11.90;99.90
5055;DHT22;13829;48.990;8.346;2024-03-23T12:03:19;11.80;99.90
5055;DHT22;13829;48.990;8.346;2024-03-23T12:05:49;11.80;99.90
5055;DHT22;13829;48.990;8.346;2024-03-23T12:08:20;12.00;99.90
5055;DHT22;13829;48.990;8.346;2024-03-23T12:10:49;12.10;99.90
5055;DHT22;13829;48.990;8.346;2024-03-23T12:13:19;12.40;99.90
5055;DHT22;13829;48.990;8.346;2024-03-23T12:15:47;12.60;99.90
5055;DHT22;13829;48.990;8.346;2024-03-23T12:18:16;12.80;99.90
5055;DHT22;13829;48.990;8.346;2024-03-23T12:20:43;12.90;96.60
5055;DHT22;13829;48.990;8.346;2024-03-23T12:23:11;13.00;96.70
5055;DHT22;13829;48.990;8.346;2024-03-23T12:25:38;13.20;94.90
5055;DHT22;13829;48.990;8.346;2024-03-23T12:28:07;13.40;93.50
5055;DHT22;13829;48.990;8.346;2024-03-23T12:30:36;13.30;92.10
5055;DHT22;13829;48.990;8.346;2024-03-23T12:33:06;13.20;91.50
5055;DHT22;13829;48.990;8.346;2024-03-23T12:35:32;13.10;90.40
5055;DHT22;13829;48.990;8.346;2024-03-23T12:37:59;13.00;96.20
5055;DHT22;13829;48.990;8.346;2024-03-23T12:40:25;13.00;98.30
5055;DHT22;13829;48.990;8.346;2024-03-23T12:42:53;13.10;96.60
5055;DHT22;13829;48.990;8.346;2024-03-23T12:45:19;13.10;96.60
5055;DHT22;13829;48.990;8.346;2024-03-23T12:47:47;12.90;96.90
5055;DHT22;13829;48.990;8.346;2024-03-23T12:50:13;12.60;92.00
5055;DHT22;13829;48.990;8.346;2024-03-23T12:52:41;12.30;92.70
5055;DHT22;13829;48.990;8.346;2024-03-23T12:55:08;11.80;94.00
5055;DHT22;13829;48.990;8.346;2024-03-23T12:57:35;11.30;95.20
5055;DHT22;13829;48.990;8.346;2024-03-23T13:00:01;10.70;99.80
5055;DHT22;13829;48.990;8.346;2024-03-23T13:02:29;10.10;99.90
5055;DHT22;13829;48.990;8.346;2024-03-23T13:04:57;9.60;99.90
5055;DHT22;13829;48.990;8.346;2024-03-23T13:07:24;9.50;99.90
5055;DHT22;13829;48.990;8.346;2024-03-23T13:09:50;9.50;99.90
5055;DHT22;13829;48.990;8.346;2024-03-23T13:12:18;9.80;99.90
5055;DHT22;13829;48.990;8.346;2024-03-23T13:14:44;10.00;99.90
5055;DHT22;13829;48.990;8.346;2024-03-23T13:17:12;10.30;99.90
5055;DHT22;13829;48.990;8.346;2024-03-23T13:19:38;10.50;99.90
5055;DHT22;13829;48.990;8.346;2024-03-23T13:22:06;10.50;99.90
5055;DHT22;13829;48.990;8.346;2024-03-23T13:24:32;10.40;99.90
5055;DHT22;13829;48.990;8.346;2024-03-23T13:26:59;10.50;99.80
5055;DHT22;13829;48.990;8.346;2024-03-23T13:29:25;10.70;99.50
5055;DHT22;13829;48.990;8.346;2024-03-23T13:31:52;10.90;99.30
5055;DHT22;13829;48.990;8.346;2024-03-23T13:34:19;10.80;98.10
5055;DHT22;13829;48.990;8.346;2024-03-23T13:36:46;10.60;98.80
5055;DHT22;13829;48.990;8.346;2024-03-23T13:39:14;10.50;98.90
5055;DHT22;13829;48.990;8.346;2024-03-23T13:41:43;10.50;99.20
5055;DHT22;13829;48.990;8.346;2024-03-23T13:44:11;10.50;99.80
5055;DHT22;13829;48.990;8.346;2024-03-23T13:46:39;10.70;99.90
5055;DHT22;13829;48.990;8.346;2024-03-23T13:49:05;11.10;99.70
5055;DHT22;13829;48.990;8.346;2024-03-23T13:51:32;11.30;99.30
5055;DHT22;13829;48.990;8.346;2024-03-23T13:53:58;11.50;98.80
5055;DHT22;13829;48.990;8.346;2024-03-23T13:56:28;11.50;98.70
5055;DHT22;13829;48.990;8.346;2024-03-23T13:58:55;11.60;98.50
5055;DHT22;13829;48.990;8.346;2024-03-23T14:01:23;11.70;98.60
5055;DHT22;13829;48.990;8.346;2024-03-23T14:03:50;11.60;99.10
5055;DHT22;13829;48.990;8.346;2024-03-23T14:06:17;11.70;99.90
5055;DHT22;13829;48.990;8.346;2024-03-23T14:08:43;11.60;99.90
5055;DHT22;13829;48.990;8.346;2024-03-23T14:11:10;11.30;99.90
5055;DHT22;13829;48.990;8.346;2024-03-23T14:13:37;11.50;99.90
5055;DHT22;13829;48.990;8.346;2024-03-23T14:16:06;11.40;98.70
5055;DHT22;13829;48.990;8.346;2024-03-23T14:18:32;11.50;98.40
5055;DHT22;13829;48.990;8.346;2024-03-23T14:21:00;11.10;98.30
5055;DHT22;13829;48.990;8.346;2024-03-23T14:23:27;11.00;98.80
5055;DHT22;13829;48.990;8.346;2024-03-23T14:25:55;10.70;97.60
5055;DHT22;13829;48.990;8.346;2024-03-23T14:28:22;10.30;98.20
5055;DHT22;13829;48.990;8.346;2024-03-23T14:30:51;10.00;98.70
5055;DHT22;13829;48.990;8.346;2024-03-23T14:33:17;10.00;99.80
5055;DHT22;13829;48.990;8.346;2024-03-23T14:35:52;10.10;99.70
5055;DHT22;13829;48.990;8.346;2024-03-23T14:38:18;10.30;98.90
5055;DHT22;13829;48.990;8.346;2024-03-23T14:40:45;10.70;98.90
5055;DHT22;13829;48.990;8.346;2024-03-23T14:43:12;11.00;97.60
5055;DHT22;13829;48.990;8.346;2024-03-23T14:48:35;11.20;97.60
5055;DHT22;13829;48.990;8.346;2024-03-23T14:51:02;11.30;97.10
5055;DHT22;13829;48.990;8.346;2024-03-23T14:53:30;11.40;96.50
5055;DHT22;13829;48.990;8.346;2024-03-23T14:55:58;11.40;94.90
5055;DHT22;13829;48.990;8.346;2024-03-23T14:58:25;11.30;95.30
5055;DHT22;13829;48.990;8.346;2024-03-23T15:00:52;11.20;95.60
5055;DHT22;13829;48.990;8.346;2024-03-23T15:03:20;11.10;96.00
5055;DHT22;13829;48.990;8.346;2024-03-23T15:05:54;11.20;96.30
5055;DHT22;13829;48.990;8.346;2024-03-23T15:08:20;11.30;96.50
5055;DHT22;13829;48.990;8.346;2024-03-23T15:10:47;11.30;96.70
5055;DHT22;13829;48.990;8.346;2024-03-23T15:13:14;11.10;96.00
5055;DHT22;13829;48.990;8.346;2024-03-23T15:15:41;11.00;96.50
5055;DHT22;13829;48.990;8.346;2024-03-23T15:18:10;10.90;97.10
5055;DHT22;13829;48.990;8.346;2024-03-23T15:20:39;10.90;97.70
5055;DHT22;13829;48.990;8.346;2024-03-23T15:23:05;10.90;98.10
5055;DHT22;13829;48.990;8.346;2024-03-23T15:25:32;10.90;98.30
5055;DHT22;13829;48.990;8.346;2024-03-23T15:27:58;10.80;98.60
5055;DHT22;13829;48.990;8.346;2024-03-23T15:30:25;10.80;98.30
5055;DHT22;13829;48.990;8.346;2024-03-23T15:32:51;10.80;98.60
5055;DHT22;13829;48.990;8.346;2024-03-23T15:35:19;10.70;99.40
5055;DHT22;13829;48.990;8.346;2024-03-23T15:37:46;10.60;99.90
5055;DHT22;13829;48.990;8.346;2024-03-23T15:40:13;10.60;99.90
5055;DHT22;13829;48.990;8.346;2024-03-23T15:42:39;10.70;99.90
5055;DHT22;13829;48.990;8.346;2024-03-23T15:45:06;10.80;99.90
5055;DHT22;13829;48.990;8.346;2024-03-23T15:47:35;10.80;99.90
5055;DHT22;13829;48.990;8.346;2024-03-23T15:50:01;10.60;99.90
5055;DHT22;13829;48.990;8.346;2024-03-23T15:52:29;10.60;99.90
5055;DHT22;13829;48.990;8.346;2024-03-23T15:54:56;10.50;99.90
5055;DHT22;13829;48.990;8.346;2024-03-23T15:57:25;10.50;99.90
5055;DHT22;13829;48.990;8.346;2024-03-23T15:59:51;10.40;99.90
5055;DHT22;13829;48.990;8.346;2024-03-23T16:02:18;10.30;99.90
5055;DHT22;13829;48.990;8.346;2024-03-23T16:04:44;10.20;99.90
5055;DHT22;13829;48.990;8.346;2024-03-23T16:07:11;10.10;99.90
5055;DHT22;13829;48.990;8.346;2024-03-23T16:09:37;10.00;99.90
5055;DHT22;13829;48.990;8.346;2024-03-23T16:12:05;10.00;99.90
5055;DHT22;13829;48.990;8.346;2024-03-23T16:14:31;10.00;99.90
5055;DHT22;13829;48.990;8.346;2024-03-23T16:16:58;10.10;99.90
5055;DHT22;13829;48.990;8.346;2024-03-23T16:19:24;10.10;99.90
5055;DHT22;13829;48.990;8.346;2024-03-23T16:21:51;10.10;99.90
5055;DHT22;13829;48.990;8.346;2024-03-23T16:24:17;9.90;99.90
5055;DHT22;13829;48.990;8.346;2024-03-23T16:26:44;9.80;99.90
5055;DHT22;13829;48.990;8.346;2024-03-23T16:29:12;9.40;99.90
5055;DHT22;13829;48.990;8.346;2024-03-23T16:31:39;9.00;99.90
5055;DHT22;13829;48.990;8.346;2024-03-23T16:34:05;8.60;99.90
5055;DHT22;13829;48.990;8.346;2024-03-23T16:36:32;8.30;99.90
5055;DHT22;13829;48.990;8.346;2024-03-23T16:38:58;8.30;99.90
5055;DHT22;13829;48.990;8.346;2024-03-23T16:41:25;8.50;99.90
5055;DHT22;13829;48.990;8.346;2024-03-23T16:43:52;8.60;99.90
5055;DHT22;13829;48.990;8.346;2024-03-23T16:46:21;8.70;99.90